Marathon, FL (33050)

11:10 AM EDT on September 04, 2015 (GMT -0400)
Key Colony Beach FL | | Change Station
CLOSE
Current Station
Personal Weather Station
Location: Marathon, FL
Elevation: 10 ft
Nearby Weather Stations

Elev 10 ft 24.72 °N, 81.02 °W | Updated 23 seconds ago

Overcast
Overcast
85.5 °F
Feels Like 109 °F
N
1.0
Wind Variable Wind from East
Gusts 1.0 mph

Today
High -- | Low -- °F
--% Chance of Precip.
Yesterday
High -- | Low -- °F
Precip. -- in
7:06 AM 7:39 PM
Waning Gibbous, 59% visible
Pressure 30.00 in
Visibility 10.0 miles
Clouds Scattered Clouds 2300 ft
Mostly Cloudy 5000 ft
Mostly Cloudy 25000 ft
Heat Index 109 °F
Dew Point 86 °F
Humidity 100%
Rainfall 0.00 in
Snow Depth Not available.
UV 5 out of 12
Pollen 4.80 out of 12
Air Quality Not available.
Flu Activity Not available.
METAR KNQX 041453Z VRB03KT 10SM SCT023 BKN050 BKN250 31/24 A3001 RMK AO2 SLP159 T2 SET T03060244 51012 $
Pressure 30.00 in
Visibility 10.0 miles
Clouds Scattered Clouds 2300 ft
Mostly Cloudy 5000 ft
Mostly Cloudy 25000 ft
Heat Index 109 °F
Dew Point 86 °F
Humidity 100%
Rainfall 0.00 in
Snow Depth Not available.
UV 5 out of 12
Pollen 4.80 out of 12
Air Quality Not available.
Flu Activity Not available.
METAR KNQX 041453Z VRB03KT 10SM SCT023 BKN050 BKN250 31/24 A3001 RMK AO2 SLP159 T2 SET T03060244 51012 $

10-Day Weather Forecast

×

Almanac

Astronomy

Sep. 04, 2015 Rise Set
Actual Time
Civil Twilight
Nautical Twilight
Astronomical Twilight
Moon
Length of Visible Light
Length of Day
Tomorrow will be .
, % of the Moon is Illuminated

Today's Extremes

State Highs State Lows

Community

WunderPhotos

Upload Photos

1,852,190 photos uploaded!

WunderBlogs® & News

Nearby

Air Quality

  Air Quality AQ Index Pollutant
Not available.

Snow Depth

Station Depth Elevation

Earthquake Activity

City Distance Mag. Time & Date
Minimum magnitude displayed is 2.5.

Coastal Water Temperatures

Place Temperature

Stations

Nearby Weather Stations

Station Location Temp. Windchill Dew Point Humidity Wind Precip. Elev Updated Type